Data for 03/06/2010

Time Sea-Level Adjusted Pressure Absolute Pressure Temperature Relative Humidity Dew Point   
(mb) (inHg) (mb) (inHg) (C) (F) (%) (C) (F)
00:05 1021 30.15 850 25.1 0.9 33.7 86 -1.1 30.1
00:10 1021 30.15 850 25.1 1 33.8 85 -1.2 29.9
00:15 1021 30.15 850 25.1 0.8 33.5 86 -1.3 29.6
00:20 1021 30.15 850 25.1 0.7 33.2 85 -1.5 29.2
00:25 1021 30.15 850 25.1 0.7 33.2 85 -1.5 29.3
00:30 1021 30.15 850 25.1 0.7 33.3 85 -1.6 29.1
00:35 1021 30.15 850 25.1 0.6 33.1 86 -1.4 29.4
00:40 1021 30.15 850 25.1 0.6 33.1 86 -1.5 29.4
00:45 1021 30.15 850 25.1 0.6 33.1 86 -1.5 29.2
00:50 1021 30.15 850 25.1 0.6 33 86 -1.6 29.2
00:55 1021 30.15 850 25.1 0.6 33.1 85 -1.6 29.1
01:00 1021 30.15 850 25.1 0.5 32.8 85 -1.7 28.9
01:05 1021 30.15 850 25.1 0.3 32.6 86 -1.8 28.8
01:10 1021 30.15 850 25.1 0.2 32.3 86 -1.9 28.6
01:15 1021 30.15 850 25.1 0.1 32.3 87 -1.8 28.8
01:20 1021 30.15 850 25.1 0.1 32.2 87 -1.8 28.8
01:25 1021 30.15 850 25.1 0.1 32.1 87 -1.8 28.7
01:30 1021 30.15 850 25.1 -0.1 31.9 87 -2 28.5
01:35 1021 30.15 850 25.1 -0.1 31.8 87 -2 28.5
01:40 1021 30.15 850 25.1 -0.2 31.7 87 -2 28.3
01:45 1021 30.15 850 25.1 -0.3 31.4 87 -2.2 28
01:50 1021 30.15 850 25.1 -0.5 31.1 88 -2.3 27.9
01:55 1021 30.15 850 25.1 -0.2 31.6 85 -2.4 27.6
02:00 1021 30.15 850 25.1 0 32.1 84 -2.3 27.8
02:05 1021 30.15 850 25.1 0.2 32.4 84 -2.1 28.2
02:10 1021 30.15 850 25.1 -0 32 85 -2.2 28.1
02:15 1021 30.15 850 25.1 -0.2 31.7 86 -2.3 27.9
02:20 1021 30.15 850 25.1 -0.5 31.2 87 -2.3 27.8
02:25 1021 30.15 850 25.1 -0.5 31.1 88 -2.3 27.8
02:30 1021 30.15 850 25.1 -0.6 31 89 -2.2 28
02:35 1021 30.15 850 25.1 -0.5 31.1 88 -2.3 27.9
02:40 1021 30.15 850 25.1 -0.5 31.1 88 -2.3 27.9
02:45 1021 30.15 850 25.1 -0.6 30.9 88 -2.4 27.7
02:50 1021 30.15 850 25.1 -0.7 30.8 89 -2.3 27.8
02:55 1021 30.15 850 25.1 -0.7 30.7 89 -2.4 27.7
03:00 1021 30.15 850 25.1 -0.6 31 88 -2.4 27.7
03:05 1021 30.15 850 25.1 -0.5 31.1 87 -2.4 27.6
03:10 1021 30.15 850 25.1 -0.5 31.1 86 -2.5 27.5
03:15 1021 30.15 850 25.1 -0.5 31.1 86 -2.5 27.4
03:20 1021 30.15 850 25.1 -0.6 30.9 87 -2.5 27.4
03:25 1021 30.15 850 25.1 -0.4 31.3 87 -2.4 27.8
03:30 1021 30.15 850 25.1 0.1 32.2 84 -2.3 27.9
03:35 1021 30.15 850 25.1 0.2 32.3 83 -2.5 27.5
03:40 1021 30.15 850 25.1 0.1 32.2 82 -2.5 27.5
03:45 1021 30.15 850 25.1 0.2 32.3 82 -2.6 27.4
03:50 1021 30.15 850 25.1 0.2 32.3 83 -2.4 27.7
03:55 1021 30.15 850 25.1 0.1 32.2 83 -2.4 27.6
04:00 1021 30.15 850 25.1 -0 31.9 83 -2.6 27.4
04:05 1021 30.15 850 25.1 -0.3 31.5 83 -2.8 27
04:10 1021 30.15 850 25.1 -0.4 31.3 85 -2.6 27.3
04:15 1021 30.15 850 25.1 -0.3 31.5 85 -2.5 27.5
04:20 1021 30.15 850 25.1 -0.1 31.9 84 -2.4 27.6
04:25 1021 30.15 850 25.1 -0.3 31.5 84 -2.7 27.1
04:30 1021 30.15 850 25.1 -0.7 30.7 85 -3 26.7
04:35 1021 30.15 850 25.1 -0.8 30.6 85 -2.9 26.8
04:40 1021 30.15 850 25.1 -1 30.3 87 -2.8 26.9
04:45 1021 30.15 850 25.1 -1 30.2 87 -2.9 26.8
04:50 1021 30.15 850 25.1 -1 30.2 88 -2.8 26.9
04:55 1021 30.15 850 25.1 -1.2 29.9 87 -3 26.6
05:00 1021 30.15 850 25.1 -1.6 29.1 90 -3.1 26.4
05:05 1021 30.15 850 25.1 -1.5 29.3 89 -3.1 26.4
05:10 1021 30.15 850 25.1 -1.3 29.7 88 -3 26.6
05:15 1021 30.15 850 25.1 -1.3 29.7 88 -3 26.6
05:20 1021 30.15 850 25.1 -1.1 30 88 -2.9 26.8
05:25 1021 30.15 850 25.1 -0.9 30.3 87 -2.8 26.9
05:30 1021 30.15 850 25.1 -1 30.2 87 -2.9 26.7
05:35 1021 30.15 850 25.1 -1.1 30.1 87 -2.9 26.8
05:40 1021 30.15 850 25.1 -1.1 30.1 87 -3 26.6
05:45 1021 30.15 850 25.1 -1 30.3 86 -2.9 26.7
05:50 1021 30.15 850 25.1 -0.9 30.4 87 -2.8 27
05:55 1021 30.15 851 25.13 -0.9 30.4 87 -2.8 26.9
06:00 1021 30.15 851 25.13 -1.1 30.1 88 -2.9 26.9
06:05 1021 30.15 851 25.13 -1.1 30 87 -2.9 26.7
06:10 1021 30.15 851 25.13 -1.2 29.9 87 -3 26.6
06:15 1021 30.15 851 25.13 -1.1 30.1 87 -3 26.7
06:20 1021 30.15 851 25.13 -1 30.2 87 -2.9 26.8
06:25 1021 30.15 851 25.13 -1.1 30 87 -3.1 26.5
06:30 1021 30.15 851 25.13 -1.3 29.7 87 -3.1 26.4
06:35 1021 30.15 850 25.1 -1.3 29.6 88 -3 26.6
06:40 1021 30.15 850 25.1 -1 30.2 87 -2.9 26.7
06:45 1021 30.15 850 25.1 -1 30.2 87 -3 26.7
06:50 1021 30.15 850 25.1 -1.1 30.1 87 -3 26.6
06:55 1021 30.15 850 25.1 -1.2 29.8 87 -3.1 26.4
07:00 1021 30.15 850 25.1 -1.2 29.8 87 -3.1 26.5
07:05 1021 30.15 851 25.13 -1.1 29.9 87 -3.1 26.4
07:10 1021 30.15 851 25.13 -1.2 29.9 86 -3.1 26.4
07:15 1021 30.15 851 25.13 -0.9 30.4 84 -3.3 26.1
07:20 1021 30.15 851 25.13 -0.9 30.4 83 -3.3 26
07:25 1021 30.15 851 25.13 -0.9 30.4 84 -3.3 26
07:30 1021 30.15 851 25.13 -0.9 30.5 84 -3.3 26.1
07:35 1021 30.15 851 25.13 -0.8 30.5 84 -3.2 26.2
07:40 1021 30.15 851 25.13 -0.7 30.7 83 -3.2 26.2
07:45 1021 30.15 851 25.13 -0.4 31.2 82 -3.1 26.5
07:50 1021 30.15 851 25.13 -0.3 31.5 82 -3 26.6
07:55 1021 30.15 851 25.13 -0.5 31.2 79 -3.7 25.3
08:00 1021 30.15 851 25.13 -0 31.9 80 -3.1 26.4
08:05 1021 30.15 851 25.13 0.1 32.2 79 -3.1 26.5
08:10 1021 30.15 851 25.13 0.3 32.6 78 -3 26.5
08:15 1021 30.15 851 25.13 0.4 32.7 77 -3.1 26.4
08:20 1021 30.15 851 25.13 0.7 33.2 77 -3 26.6
08:25 1021 30.15 851 25.13 0.7 33.2 76 -3 26.6
08:30 1021 30.15 851 25.13 0.9 33.7 75 -3 26.6
08:35 1021 30.15 851 25.13 0.9 33.6 75 -3 26.6
08:40 1021 30.15 851 25.13 0.9 33.7 75 -3 26.7
08:45 1021 30.15 851 25.13 1.2 34.2 74 -2.9 26.8
08:50 1021 30.15 851 25.13 1.5 34.7 73 -2.9 26.8
08:55 1021 30.15 851 25.13 2 35.6 72 -2.6 27.4
09:00 1021 30.15 851 25.13 2.7 36.8 69 -2.5 27.5
09:05 1021 30.15 851 25.13 3.5 38.4 65 -2.5 27.5
09:10 1021 30.15 851 25.13 3.5 38.2 67 -2 28.4
09:15 1021 30.15 851 25.13 3.5 38.2 67 -2.2 28.1
09:20 1022 30.18 851 25.13 3.4 38.1 67 -2.1 28.3
09:25 1022 30.18 851 25.13 3.6 38.4 68 -1.9 28.7
09:30 1022 30.18 851 25.13 3.7 38.7 67 -1.9 28.7
09:35 1022 30.18 851 25.13 3.5 38.3 67 -2.1 28.3
09:40 1022 30.18 851 25.13 3.5 38.3 69 -1.7 29
09:45 1022 30.18 851 25.13 3.9 38.9 66 -1.9 28.6
09:50 1022 30.18 851 25.13 3.8 38.9 66 -1.9 28.5
09:55 1022 30.18 851 25.13 3.7 38.6 65 -2.2 28.1
10:00 1022 30.18 851 25.13 3.6 38.5 64 -2.5 27.6
10:05 1021 30.15 851 25.13 3.5 38.4 64 -2.6 27.2
10:10 1021 30.15 851 25.13 4 39.2 64 -2.2 28
10:15 1021 30.15 851 25.13 4.7 40.5 62 -1.9 28.6
10:20 1021 30.15 851 25.13 5.3 41.6 61 -1.6 29.2
10:25 1021 30.15 851 25.13 4.9 40.8 63 -1.5 29.3
10:30 1021 30.15 851 25.13 5.1 41.1 62 -1.7 29
10:35 1021 30.15 851 25.13 5.2 41.4 61 -1.8 28.8
10:40 1021 30.15 850 25.1 5.8 42.4 58 -1.9 28.6
10:45 1021 30.15 850 25.1 5.6 42.1 59 -1.8 28.8
10:50 1021 30.15 850 25.1 5.7 42.2 59 -1.7 28.9
10:55 1021 30.15 850 25.1 5.8 42.4 57 -2.1 28.2
11:00 1021 30.15 850 25.1 5.9 42.7 57 -1.9 28.6
11:05 1021 30.15 850 25.1 5.5 41.8 60 -1.7 28.9
11:10 1021 30.15 850 25.1 5.6 42 58 -1.9 28.5
11:15 1021 30.15 850 25.1 5.6 42.1 59 -1.7 28.9
11:20 1021 30.15 850 25.1 5.5 41.9 60 -1.7 28.9
11:25 1021 30.15 850 25.1 5.9 42.6 57 -1.9 28.5
11:30 1021 30.15 850 25.1 6.3 43.3 54 -2.4 27.7
11:35 1021 30.15 850 25.1 6.4 43.6 55 -2.1 28.3
11:40 1021 30.15 850 25.1 6.6 43.8 55 -1.9 28.6
11:45 1021 30.15 850 25.1 7 44.6 53 -2 28.4
11:50 1020 30.12 850 25.1 7.3 45.1 52 -2 28.4
11:55 1020 30.12 850 25.1 6.8 44.2 52 -2.2 28
12:00 1020 30.12 850 25.1 6.1 42.9 55 -2.3 27.9
12:05 1020 30.12 849 25.07 6.1 42.9 54 -2.6 27.4
12:10 1020 30.12 849 25.07 6.7 44.1 52 -2.5 27.5
12:15 1020 30.12 849 25.07 6.5 43.7 53 -2.4 27.6
12:20 1020 30.12 849 25.07 6.1 43.1 55 -2.1 28.2
12:25 1020 30.12 849 25.07 6.2 43.1 54 -2.4 27.7
12:30 1020 30.12 849 25.07 6.3 43.4 53 -2.5 27.5
12:35 1020 30.12 849 25.07 6.8 44.2 51 -2.6 27.3
12:40 1020 30.12 849 25.07 6.8 44.2 52 -2.4 27.7
12:45 1020 30.12 849 25.07 7 44.6 52 -2.3 27.9
12:50 1020 30.12 849 25.07 6.8 44.3 53 -2.2 28.1
12:55 1019 30.09 849 25.07 7 44.5 50 -2.7 27.1
13:00 1019 30.09 849 25.07 7.1 44.7 51 -2.4 27.7
13:05 1019 30.09 849 25.07 7.2 45 51 -2.2 28.1
13:10 1019 30.09 848 25.04 6.9 44.4 52 -2.3 27.9
13:15 1019 30.09 848 25.04 7.3 45.1 50 -2.5 27.6
13:20 1019 30.09 848 25.04 7.6 45.6 50 -2.3 27.9
13:25 1019 30.09 848 25.04 7.7 45.9 50 -2.1 28.2
13:30 1019 30.09 848 25.04 7.9 46.1 50 -1.8 28.8
13:35 1019 30.09 848 25.04 7.7 45.8 51 -1.9 28.6
13:40 1019 30.09 848 25.04 7.7 45.9 51 -1.9 28.7
13:45 1019 30.09 848 25.04 7.5 45.6 51 -1.9 28.6
13:50 1019 30.09 848 25.04 7.3 45.1 52 -1.9 28.5
13:55 1019 30.09 848 25.04 7.3 45.2 52 -1.8 28.7
14:00 1019 30.09 848 25.04 7.4 45.3 53 -1.7 29
14:05 1019 30.09 848 25.04 7.6 45.7 52 -1.6 29.2
14:10 1019 30.09 848 25.04 7.9 46.2 50 -1.9 28.5
14:15 1018 30.06 848 25.04 8.1 46.5 50 -1.8 28.8
14:20 1018 30.06 848 25.04 8.3 46.9 51 -1.4 29.5
14:25 1018 30.06 848 25.04 8.3 46.9 49 -1.8 28.8
14:30 1018 30.06 848 25.04 8 46.3 52 -1.3 29.6
14:35 1018 30.06 848 25.04 7.5 45.5 53 -1.4 29.5
14:40 1018 30.06 847 25.01 7.5 45.6 54 -1.2 29.8
14:45 1018 30.06 847 25.01 7.5 45.6 55 -0.9 30.3
14:50 1018 30.06 847 25.01 6.8 44.3 54 -1.7 28.9
14:55 1018 30.06 847 25.01 7.2 44.9 55 -1.2 29.8
15:00 1018 30.06 847 25.01 7.5 45.5 53 -1.4 29.5
15:05 1018 30.06 847 25.01 7.7 45.8 54 -1.1 29.9
15:10 1018 30.06 847 25.01 7.5 45.4 56 -0.8 30.5
15:15 1018 30.06 847 25.01 6.9 44.4 56 -1.2 29.8
15:20 1018 30.06 847 25.01 6.7 44.1 60 -0.6 30.9
15:25 1018 30.06 847 25.01 6.8 44.2 57 -1.1 30
15:30 1018 30.06 847 25.01 7 44.6 56 -1.2 29.8
15:35 1018 30.06 847 25.01 7 44.7 59 -0.4 31.3
15:40 1018 30.06 847 25.01 7.1 44.8 56 -1.2 29.9
15:45 1017 30.03 847 25.01 7.8 46 56 -0.5 31.2
15:50 1017 30.03 847 25.01 6.5 43.6 62 -0.3 31.4
15:55 1017 30.03 847 25.01 6 42.7 62 -0.8 30.6
16:00 1017 30.03 846 24.98 5.6 42.1 63 -0.8 30.5
16:05 1017 30.03 846 24.98 5.5 41.9 63 -1 30.1
16:10 1017 30.03 846 24.98 5.6 42.1 62 -1.1 30
16:15 1017 30.03 846 24.98 5.5 41.9 61 -1.4 29.6
16:20 1017 30.03 846 24.98 5.7 42.3 61 -1.2 29.8
16:25 1017 30.03 846 24.98 5.4 41.6 62 -1.3 29.7
16:30 1017 30.03 846 24.98 5.3 41.6 62 -1.3 29.7
16:35 1017 30.03 846 24.98 5.3 41.5 62 -1.4 29.5
16:40 1017 30.03 846 24.98 5.3 41.6 62 -1.4 29.5
16:45 1017 30.03 846 24.98 5.4 41.8 62 -1.2 29.8
16:50 1017 30.03 846 24.98 5.3 41.6 61 -1.7 29
16:55 1017 30.03 846 24.98 5.9 42.6 60 -1.3 29.6
17:00 1017 30.03 846 24.98 6.4 43.6 56 -1.6 29.1
17:05 1017 30.03 846 24.98 6.7 44 57 -1.2 29.8
17:10 1017 30.03 846 24.98 6.4 43.6 57 -1.6 29.2
17:15 1017 30.03 846 24.98 6.4 43.6 56 -1.7 29
17:20 1017 30.03 846 24.98 6.6 43.9 54 -2 28.4
17:25 1017 30.03 846 24.98 6.7 44.1 53 -2.2 28
17:30 1017 30.03 846 24.98 6.9 44.4 53 -1.9 28.6
17:35 1017 30.03 846 24.98 6.3 43.4 56 -1.7 28.9
17:40 1017 30.03 846 24.98 6.2 43.2 56 -2 28.5
17:45 1017 30.03 846 24.98 5.8 42.5 57 -2 28.4
17:50 1017 30.03 846 24.98 5.6 42 59 -1.8 28.8
17:55 1016 30 846 24.98 5.3 41.5 60 -1.8 28.8
18:00 1016 30 846 24.98 5 41.1 61 -1.8 28.8
18:05 1016 30 846 24.98 4.9 40.8 63 -1.6 29.1
18:10 1016 30 846 24.98 4.8 40.6 63 -1.7 29
18:15 1016 30 846 24.98 4.6 40.3 63 -1.8 28.8
18:20 1016 30 845 24.95 4.5 40.1 63 -1.9 28.6
18:25 1016 30 845 24.95 4.5 40.1 64 -1.7 29
18:30 1016 30 845 24.95 4.4 39.9 65 -1.6 29.1
18:35 1016 30 845 24.95 4.3 39.7 64 -1.9 28.6
18:40 1016 30 845 24.95 4.1 39.3 64 -2.1 28.2
18:45 1016 30 845 24.95 3.9 39 65 -2.1 28.2
18:50 1016 30 845 24.95 3.7 38.6 65 -2.2 28
18:55 1016 30 845 24.95 3.6 38.4 65 -2.4 27.8
19:00 1016 30 845 24.95 3.4 38.2 66 -2.3 27.9
19:05 1016 30 845 24.95 3.2 37.8 67 -2.4 27.8
19:10 1016 30 845 24.95 3.3 37.9 66 -2.5 27.5
19:15 1016 30 845 24.95 3.4 38 65 -2.6 27.2
19:20 1016 30 845 24.95 3.2 37.8 66 -2.6 27.3
19:25 1016 30 845 24.95 3 37.4 67 -2.5 27.5
19:30 1016 30 845 24.95 2.8 37 67 -2.8 27
19:35 1016 30 845 24.95 2.9 37.2 66 -2.8 27
19:40 1016 30 845 24.95 2.7 36.9 67 -2.7 27.1
19:45 1016 30 845 24.95 2.8 37 66 -3 26.7
19:50 1016 30 845 24.95 3.2 37.7 65 -2.8 26.9
19:55 1016 30 845 24.95 3.1 37.6 66 -2.7 27.2
20:00 1016 30 845 24.95 2.9 37.2 66 -2.8 27
20:05 1016 30 845 24.95 2.6 36.7 68 -2.8 27
20:10 1016 30 845 24.95 2.5 36.5 69 -2.6 27.3
20:15 1016 30 845 24.95 2.3 36.2 69 -2.8 26.9
20:20 1016 30 845 24.95 2.6 36.7 67 -3 26.7
20:25 1016 30 845 24.95 2.8 37.1 67 -2.6 27.2
20:30 1016 30 845 24.95 2.4 36.3 69 -2.7 27.2
20:35 1016 30 845 24.95 2.4 36.3 68 -2.9 26.8
20:40 1016 30 845 24.95 2.7 36.9 67 -2.7 27.1
20:45 1016 30 845 24.95 2.6 36.6 68 -2.7 27.2
20:50 1016 30 845 24.95 2.4 36.2 69 -2.8 27
20:55 1016 30 845 24.95 2.3 36.2 69 -2.7 27.1
21:00 1016 30 845 24.95 2.6 36.7 67 -2.8 26.9
21:05 1016 30 845 24.95 2.9 37.1 67 -2.8 27
21:10 1016 30 845 24.95 3 37.4 65 -2.9 26.8
21:15 1016 30 845 24.95 3.2 37.7 65 -2.7 27.2
21:20 1016 30 845 24.95 3 37.4 66 -2.8 27
21:25 1016 30 845 24.95 3 37.3 67 -2.7 27.2
21:30 1016 30 845 24.95 2.7 36.8 67 -2.8 27
21:35 1016 30 845 24.95 2.8 37 66 -2.9 26.8
21:40 1016 30 845 24.95 3.1 37.6 65 -2.8 26.9
21:45 1016 30 845 24.95 3.2 37.8 65 -2.7 27.1
21:50 1016 30 845 24.95 3.3 38 64 -2.8 27
21:55 1016 30 845 24.95 3.5 38.2 64 -2.6 27.2
22:00 1016 30 845 24.95 3.5 38.3 64 -2.7 27.1
22:05 1016 30 845 24.95 3.5 38.3 64 -2.7 27.2
22:10 1016 30 845 24.95 3.6 38.4 64 -2.7 27.2
22:15 1016 30 845 24.95 3.7 38.7 63 -2.6 27.3
22:20 1015 29.97 845 24.95 3.9 39 63 -2.5 27.5
22:25 1015 29.97 845 24.95 3.9 38.9 63 -2.5 27.6
22:30 1015 29.97 845 24.95 3.8 38.8 64 -2.4 27.7
22:35 1015 29.97 845 24.95 3.7 38.6 65 -2.4 27.7
22:40 1015 29.97 845 24.95 3.6 38.5 65 -2.3 27.8
22:45 1015 29.97 845 24.95 3.6 38.5 65 -2.3 27.8
22:50 1015 29.97 845 24.95 3.6 38.5 66 -2.3 27.9
22:55 1015 29.97 845 24.95 3.6 38.4 66 -2.2 28
23:00 1015 29.97 845 24.95 3.5 38.3 67 -2.1 28.2
23:05 1015 29.97 845 24.95 3.4 38 67 -2.2 28.1
23:10 1015 29.97 845 24.95 3.4 38.1 68 -2 28.4
23:15 1015 29.97 844 24.92 3.4 38.2 68 -2 28.5
23:20 1015 29.97 844 24.92 3.4 38.2 68 -1.8 28.7
23:25 1015 29.97 844 24.92 3.3 38 69 -1.8 28.7
23:30 1015 29.97 844 24.92 3.3 37.9 69 -1.8 28.7
23:35 1015 29.97 844 24.92 3.3 37.9 69 -1.8 28.8
23:40 1015 29.97 844 24.92 3.3 37.9 69 -1.8 28.8
23:45 1015 29.97 844 24.92 3.2 37.8 70 -1.8 28.8
23:50 1015 29.97 844 24.92 3.2 37.8 70 -1.8 28.8
23:55 1015 29.97 844 24.92 3.2 37.7 70 -1.8 28.8
24:00 1015 29.97 844 24.92 3.2 37.8 70 -1.7 28.9